Terminal Aerodrome Forecast
Issued by NWS

Home | Current Version | Previous Version | Text Only | Print | Product List | Glossary On
Versions: 1 2 3 4 5 6 7 8 9 10 11 12 13 14 15 16 17 18 19 20 21 22 23 24 25 26 27 28 29
000
FTUS41 KOKX 252300
TAFTEB
TAF
KTEB 252331Z 2600/2624 21007KT P6SM BKN150
     FM260200 VRB03KT P6SM BKN150
     FM260600 36004KT P6SM SCT070 OVC120
     FM260900 36006KT 6SM -RA OVC025
     FM261100 36007KT 4SM -RA OVC015
     FM261500 02010KT 4SM -SNRA OVC009
     FM261700 01010G15KT 2SM -SN OVC007
     FM261900 01018G25KT 1SM -SN OVC004=

USA.gov is the U.S. government's official web portal to all federal, state and local government web resources and services.